Time;durP1;ratioP1;P1;durP2;ratioP2;P2;SDS_P1;SDS_P2;PMS_P1;PMS_P2;Temp;Humidity;BMP_temperature;BMP_pressure;BME280_temperature;BME280_humidity;BME280_pressure;Samples;Min_cycle;Max_cycle;Signal;HPM_P1;HPM_P2
2021/05/24 00:00:48;;;;;;;9.63;8.05;;;10.90;86.40;;;;;;2088892;28;20029;-70
2021/05/24 00:01:49;;;;;;;12.98;8.68;;;10.90;86.80;;;;;;2088963;28;20047;-71
2021/05/24 00:02:50;;;;;;;14.85;9.27;;;10.90;86.90;;;;;;2097809;28;20104;-70
2021/05/24 00:03:51;;;;;;;12.30;9.20;;;10.90;86.90;;;;;;2097745;28;20062;-71
2021/05/24 00:04:51;;;;;;;12.25;9.30;;;10.80;87.10;;;;;;2089105;28;20052;-70
2021/05/24 00:05:52;;;;;;;12.60;9.95;;;10.90;87.30;;;;;;2088964;28;20039;-71
2021/05/24 00:06:53;;;;;;;10.90;9.10;;;10.80;87.20;;;;;;2087774;28;20091;-71
2021/05/24 00:07:54;;;;;;;13.25;9.20;;;10.80;87.10;;;;;;2089452;28;20021;-72
2021/05/24 00:08:54;;;;;;;14.30;9.93;;;10.80;87.40;;;;;;2098304;28;20568;-72
2021/05/24 00:09:55;;;;;;;12.30;9.38;;;10.80;87.60;;;;;;2089360;28;20094;-71
2021/05/24 00:10:56;;;;;;;12.73;9.98;;;10.80;87.80;;;;;;2089001;28;20025;-71
2021/05/24 00:11:57;;;;;;;13.88;10.48;;;10.70;88.00;;;;;;2097891;28;20048;-71
2021/05/24 00:13:01;;;;;;;13.95;10.15;;;10.70;88.20;;;;;;2097852;28;20024;-71
2021/05/24 00:14:06;;;;;;;14.63;10.70;;;10.70;88.30;;;;;;2097767;28;20012;-70
2021/05/24 00:15:07;;;;;;;15.15;10.68;;;10.70;88.40;;;;;;2097769;28;20029;-71
2021/05/24 00:16:07;;;;;;;12.13;9.82;;;10.70;88.80;;;;;;2088618;28;20037;-70
2021/05/24 00:17:08;;;;;;;13.15;10.23;;;10.60;88.80;;;;;;2089312;28;20318;-70
2021/05/24 00:18:09;;;;;;;14.38;10.57;;;10.70;88.70;;;;;;2099249;28;20116;-71
2021/05/24 00:19:10;;;;;;;15.02;10.98;;;10.60;88.70;;;;;;2101294;28;20036;-73
2021/05/24 00:20:11;;;;;;;12.35;9.50;;;10.60;89.20;;;;;;2091795;28;20040;-70
2021/05/24 00:21:12;;;;;;;12.43;9.10;;;10.60;88.90;;;;;;2083537;28;20044;-72
2021/05/24 00:22:13;;;;;;;12.52;8.90;;;10.60;88.70;;;;;;2081291;28;20052;-72
2021/05/24 00:23:14;;;;;;;11.35;8.85;;;10.60;88.60;;;;;;2089385;28;20094;-71
2021/05/24 00:24:14;;;;;;;10.23;8.48;;;10.60;88.60;;;;;;2098061;28;20029;-72
2021/05/24 00:25:16;;;;;;;10.50;7.78;;;10.50;88.60;;;;;;2088935;28;20032;-71
2021/05/24 00:26:16;;;;;;;10.23;8.07;;;10.50;88.60;;;;;;2088648;28;20056;-71
2021/05/24 00:27:17;;;;;;;9.85;8.07;;;10.50;89.10;;;;;;2097710;28;20480;-71
2021/05/24 00:28:18;;;;;;;10.02;7.90;;;10.50;89.30;;;;;;2097729;28;20139;-71
2021/05/24 00:29:19;;;;;;;9.32;7.88;;;10.40;89.20;;;;;;2088847;28;20025;-71
2021/05/24 00:30:21;;;;;;;9.68;7.68;;;10.40;89.20;;;;;;2088856;28;20025;-71
2021/05/24 00:31:22;;;;;;;9.90;7.95;;;10.40;89.30;;;;;;2088898;28;20096;-71
2021/05/24 00:32:23;;;;;;;10.82;8.57;;;10.40;89.60;;;;;;2088745;28;20416;-73
2021/05/24 00:33:24;;;;;;;11.15;8.50;;;10.40;89.60;;;;;;2097658;28;20036;-71
2021/05/24 00:34:24;;;;;;;10.25;8.32;;;10.40;89.70;;;;;;2097639;28;20016;-71
2021/05/24 00:35:25;;;;;;;11.82;8.60;;;10.40;89.70;;;;;;2097659;28;20664;-71
2021/05/24 00:36:25;;;;;;;11.32;8.05;;;10.30;89.70;;;;;;2096633;28;20051;-70
2021/05/24 00:37:26;;;;;;;9.93;7.63;;;10.30;89.50;;;;;;2097351;28;20024;-70
2021/05/24 00:38:27;;;;;;;10.10;7.43;;;10.30;89.30;;;;;;2097597;28;20020;-70
2021/05/24 00:39:29;;;;;;;10.60;7.53;;;10.30;89.40;;;;;;2088866;28;20111;-72
2021/05/24 00:40:31;;;;;;;8.95;7.30;;;10.30;89.60;;;;;;2088984;28;20032;-70
2021/05/24 00:41:31;;;;;;;9.40;7.10;;;10.30;89.70;;;;;;2098032;28;20020;-69
2021/05/24 00:42:32;;;;;;;8.32;7.07;;;10.30;90.00;;;;;;2088897;28;20118;-71
2021/05/24 00:43:33;;;;;;;8.63;7.07;;;10.30;90.20;;;;;;2088835;28;20033;-71
2021/05/24 00:44:34;;;;;;;8.52;6.82;;;10.20;90.20;;;;;;2088713;28;20043;-71
2021/05/24 00:45:36;;;;;;;8.48;6.93;;;10.20;90.20;;;;;;2088759;28;20033;-71
2021/05/24 00:46:37;;;;;;;9.18;6.97;;;10.20;90.30;;;;;;2097460;28;20028;-72
2021/05/24 00:47:38;;;;;;;8.60;6.70;;;10.10;90.30;;;;;;2089298;28;20025;-71
2021/05/24 00:48:39;;;;;;;8.75;6.75;;;10.10;90.40;;;;;;2089357;28;20025;-71
2021/05/24 00:49:44;;;;;;;9.23;6.93;;;10.10;90.40;;;;;;2098060;28;20031;-72
2021/05/24 00:50:44;;;;;;;8.05;6.32;;;10.10;90.40;;;;;;2098169;28;20020;-71
2021/05/24 00:51:45;;;;;;;7.53;6.25;;;10.10;90.50;;;;;;2097804;28;20048;-71
2021/05/24 00:52:46;;;;;;;8.23;6.70;;;10.10;90.50;;;;;;2098216;28;20025;-72
2021/05/24 00:53:46;;;;;;;9.13;6.65;;;10.10;90.50;;;;;;2099097;28;20021;-71
2021/05/24 00:54:47;;;;;;;10.20;6.75;;;10.10;90.60;;;;;;2099105;28;20025;-72
2021/05/24 00:55:48;;;;;;;9.38;6.68;;;10.10;90.60;;;;;;2098855;28;20036;-71
2021/05/24 00:56:49;;;;;;;9.55;6.90;;;10.10;90.70;;;;;;2098490;28;20581;-72
2021/05/24 00:57:50;;;;;;;8.48;6.80;;;10.10;90.80;;;;;;2089022;28;20103;-71
2021/05/24 00:58:51;;;;;;;9.45;6.55;;;10.00;90.80;;;;;;2080379;28;20124;-71
2021/05/24 00:59:53;;;;;;;7.03;6.20;;;10.00;90.80;;;;;;2081109;28;20061;-73
2021/05/24 01:00:54;;;;;;;7.68;6.72;;;10.00;91.00;;;;;;2074354;28;20378;-72
2021/05/24 01:01:55;;;;;;;9.30;6.63;;;10.00;91.00;;;;;;2081389;28;20083;-73
2021/05/24 01:02:57;;;;;;;8.93;6.78;;;10.00;91.00;;;;;;2097431;28;20492;-71
2021/05/24 01:03:58;;;;;;;8.15;6.60;;;10.00;91.10;;;;;;2098217;28;20092;-72
2021/05/24 01:04:59;;;;;;;7.90;6.50;;;10.00;91.00;;;;;;2097511;28;20032;-71
2021/05/24 01:05:59;;;;;;;7.72;6.20;;;10.00;91.00;;;;;;2096956;28;20443;-71
2021/05/24 01:07:00;;;;;;;7.13;6.40;;;10.00;91.00;;;;;;2088197;28;20488;-71
2021/05/24 01:08:03;;;;;;;7.30;6.50;;;10.00;91.00;;;;;;2072726;28;20022;-72
2021/05/24 01:09:04;;;;;;;7.95;6.38;;;9.90;90.90;;;;;;2082543;28;20024;-71
2021/05/24 01:10:05;;;;;;;7.68;6.10;;;10.00;91.00;;;;;;2097352;28;20036;-71
2021/05/24 01:11:06;;;;;;;8.63;6.50;;;10.00;90.90;;;;;;2098821;28;20025;-71
2021/05/24 01:12:09;;;;;;;9.07;6.50;;;9.90;90.90;;;;;;2089258;28;20029;-72
2021/05/24 01:13:12;;;;;;;7.47;6.47;;;9.90;91.00;;;;;;2089145;28;20029;-71
2021/05/24 01:14:12;;;;;;;8.80;6.55;;;9.90;91.00;;;;;;2080059;28;20029;-70
2021/05/24 01:15:14;;;;;;;7.65;6.30;;;9.90;91.10;;;;;;2072028;28;20104;-70
2021/05/24 01:16:15;;;;;;;7.95;6.47;;;9.80;91.00;;;;;;2080530;28;20049;-71
2021/05/24 01:17:16;;;;;;;7.88;6.35;;;9.90;90.90;;;;;;2097436;28;20024;-72
2021/05/24 01:18:17;;;;;;;8.25;6.20;;;9.90;91.00;;;;;;2097433;28;20039;-71
2021/05/24 01:19:18;;;;;;;7.93;6.15;;;9.80;91.00;;;;;;2088470;28;20377;-71
2021/05/24 01:20:19;;;;;;;8.50;6.38;;;9.80;91.10;;;;;;2080403;28;20091;-68
2021/05/24 01:21:23;;;;;;;8.15;6.40;;;9.80;91.20;;;;;;2088876;28;20562;-69
2021/05/24 01:22:24;;;;;;;8.10;6.72;;;9.80;91.20;;;;;;2088480;28;20032;-68
2021/05/24 01:23:28;;;;;;;8.43;6.53;;;9.80;91.30;;;;;;2088217;28;20035;-67
2021/05/24 01:24:28;;;;;;;8.15;6.80;;;9.80;91.20;;;;;;2088464;28;20072;-71
2021/05/24 01:25:31;;;;;;;8.30;6.63;;;9.80;91.30;;;;;;2080230;28;20036;-69
2021/05/24 01:26:31;;;;;;;7.45;6.25;;;9.80;91.40;;;;;;2088455;28;20531;-69
2021/05/24 01:27:32;;;;;;;6.63;5.75;;;9.80;91.40;;;;;;2088482;28;20028;-69
2021/05/24 01:28:33;;;;;;;6.93;5.90;;;9.80;91.40;;;;;;2088503;28;20352;-69
2021/05/24 01:29:34;;;;;;;6.63;5.90;;;9.70;91.30;;;;;;2097309;28;20056;-69
2021/05/24 01:30:37;;;;;;;6.72;5.63;;;9.80;91.40;;;;;;2097232;28;20028;-70
2021/05/24 01:31:38;;;;;;;6.72;5.90;;;9.70;91.40;;;;;;2088626;28;20029;-71
2021/05/24 01:32:39;;;;;;;6.90;5.50;;;9.70;91.40;;;;;;2080067;28;20466;-70
2021/05/24 01:33:40;;;;;;;6.65;5.47;;;9.70;91.50;;;;;;2088487;28;20033;-69
2021/05/24 01:34:42;;;;;;;6.85;5.47;;;9.70;91.50;;;;;;2097287;28;20029;-69
2021/05/24 01:35:43;;;;;;;6.25;5.40;;;9.70;91.40;;;;;;2098603;28;20021;-70
2021/05/24 01:36:44;;;;;;;8.15;5.18;;;9.70;91.40;;;;;;2096741;28;20037;-72
2021/05/24 01:37:45;;;;;;;6.55;5.22;;;9.70;91.40;;;;;;2088935;28;20104;-71
2021/05/24 01:38:46;;;;;;;7.05;5.45;;;9.70;91.40;;;;;;2088154;28;20028;-70
2021/05/24 01:39:46;;;;;;;6.38;4.93;;;9.70;91.30;;;;;;2099060;28;20024;-71
2021/05/24 01:40:47;;;;;;;5.65;4.82;;;9.70;91.30;;;;;;2098203;28;20036;-72
2021/05/24 01:41:48;;;;;;;5.53;4.90;;;9.70;91.30;;;;;;2099306;28;20038;-72
2021/05/24 01:42:56;;;;;;;5.38;4.70;;;9.70;91.30;;;;;;2096894;28;20028;-72
2021/05/24 01:43:57;;;;;;;5.65;4.68;;;9.70;91.30;;;;;;2079847;28;20033;-70
2021/05/24 01:44:59;;;;;;;5.05;4.50;;;9.70;91.40;;;;;;2080259;28;20489;-71
2021/05/24 01:46:00;;;;;;;5.60;4.47;;;9.70;91.50;;;;;;2096895;28;20029;-73
2021/05/24 01:47:01;;;;;;;5.40;4.50;;;9.70;91.40;;;;;;2088566;28;20300;-72
2021/05/24 01:48:03;;;;;;;4.95;4.43;;;9.60;91.40;;;;;;2088494;28;20021;-70
2021/05/24 01:49:04;;;;;;;4.97;4.40;;;9.60;91.40;;;;;;2096998;28;20025;-70
2021/05/24 01:50:05;;;;;;;4.97;4.32;;;9.60;91.50;;;;;;2097114;28;20391;-72
2021/05/24 01:51:06;;;;;;;4.80;4.30;;;9.60;91.60;;;;;;2097102;28;20085;-71
2021/05/24 01:52:07;;;;;;;5.35;4.30;;;9.60;91.60;;;;;;2097247;28;20116;-71
2021/05/24 01:53:08;;;;;;;6.03;4.30;;;9.60;91.60;;;;;;2097056;28;20032;-72
2021/05/24 01:54:08;;;;;;;4.50;3.97;;;9.60;91.60;;;;;;2088266;28;20793;-72
2021/05/24 01:55:11;;;;;;;5.40;4.50;;;9.60;91.70;;;;;;2088541;28;20044;-71
2021/05/24 01:56:11;;;;;;;5.00;4.38;;;9.60;91.70;;;;;;2098712;28;20028;-71
2021/05/24 01:57:13;;;;;;;8.18;4.60;;;9.50;91.80;;;;;;2098690;28;20033;-72
2021/05/24 01:58:14;;;;;;;4.70;4.15;;;9.60;91.80;;;;;;2098479;28;20020;-71
2021/05/24 01:59:15;;;;;;;4.82;4.15;;;9.50;91.70;;;;;;2097582;28;20059;-70
2021/05/24 02:00:19;;;;;;;5.47;4.32;;;9.50;91.80;;;;;;2088158;28;20033;-72
2021/05/24 02:01:19;;;;;;;5.20;4.40;;;9.50;91.90;;;;;;2080424;28;20059;-71
2021/05/24 02:02:20;;;;;;;5.07;4.43;;;9.50;91.90;;;;;;2088200;28;20526;-71
2021/05/24 02:03:21;;;;;;;5.47;4.45;;;9.50;91.90;;;;;;2097025;28;20043;-72
2021/05/24 02:04:21;;;;;;;5.38;4.10;;;9.50;91.90;;;;;;2097277;28;20064;-71
2021/05/24 02:05:24;;;;;;;5.22;4.10;;;9.50;92.00;;;;;;2088065;28;20029;-70
2021/05/24 02:06:25;;;;;;;6.15;4.20;;;9.50;92.00;;;;;;2088158;28;20471;-70
2021/05/24 02:07:30;;;;;;;4.53;3.88;;;9.50;92.00;;;;;;2096616;28;20015;-71
2021/05/24 02:08:31;;;;;;;6.05;4.30;;;9.50;92.10;;;;;;2079917;28;20396;-70
2021/05/24 02:09:32;;;;;;;5.13;4.00;;;9.50;92.10;;;;;;2088265;28;20017;-70
2021/05/24 02:10:36;;;;;;;5.10;4.47;;;9.50;92.20;;;;;;2088227;28;20025;-70
2021/05/24 02:11:36;;;;;;;4.38;3.97;;;9.50;92.20;;;;;;2088176;28;20033;-70
2021/05/24 02:12:37;;;;;;;4.90;4.05;;;9.50;92.30;;;;;;2096173;28;20029;-70
2021/05/24 02:13:38;;;;;;;4.80;4.03;;;9.40;92.30;;;;;;2096847;28;20017;-70
2021/05/24 02:14:42;;;;;;;5.05;3.95;;;9.40;92.40;;;;;;2087952;28;20472;-70
2021/05/24 02:15:43;;;;;;;4.55;4.13;;;9.40;92.60;;;;;;2088028;28;20037;-70
2021/05/24 02:16:47;;;;;;;6.15;3.97;;;9.40;92.50;;;;;;2087601;28;20456;-70
2021/05/24 02:17:48;;;;;;;4.45;4.05;;;9.40;92.60;;;;;;2096960;28;20121;-69
2021/05/24 02:18:48;;;;;;;6.60;4.20;;;9.40;92.60;;;;;;2087952;28;20090;-70
2021/05/24 02:19:49;;;;;;;4.75;4.25;;;9.40;92.60;;;;;;2088125;28;20057;-70
2021/05/24 02:20:50;;;;;;;4.60;4.10;;;9.30;92.70;;;;;;2096994;28;20098;-70
2021/05/24 02:21:50;;;;;;;4.95;4.20;;;9.30;92.80;;;;;;2097117;28;20031;-70
2021/05/24 02:22:53;;;;;;;5.28;4.20;;;9.30;92.80;;;;;;2096895;28;20450;-71
2021/05/24 02:23:53;;;;;;;4.65;4.15;;;9.30;92.80;;;;;;2096810;28;20106;-70
2021/05/24 02:24:54;;;;;;;4.80;4.07;;;9.30;92.90;;;;;;2097038;28;20507;-71
2021/05/24 02:25:54;;;;;;;4.72;4.22;;;9.30;92.90;;;;;;2079488;28;20039;-70
2021/05/24 02:26:55;;;;;;;5.30;4.00;;;9.30;93.00;;;;;;2079834;28;20033;-70
2021/05/24 02:27:57;;;;;;;5.60;4.13;;;9.30;93.00;;;;;;2097061;28;20024;-71
2021/05/24 02:28:57;;;;;;;6.03;4.22;;;9.30;93.10;;;;;;2096980;28;20152;-70
2021/05/24 02:29:58;;;;;;;6.10;4.07;;;9.20;93.20;;;;;;2101664;28;20537;-71
2021/05/24 02:30:59;;;;;;;5.45;4.10;;;9.30;93.10;;;;;;2095985;28;20119;-71
2021/05/24 02:31:59;;;;;;;4.80;4.10;;;9.30;93.50;;;;;;2094228;28;20024;-72
2021/05/24 02:33:00;;;;;;;6.28;4.05;;;9.30;93.50;;;;;;2101929;28;20024;-71
2021/05/24 02:34:03;;;;;;;5.50;4.47;;;9.30;93.20;;;;;;2100926;28;20530;-69
2021/05/24 02:35:06;;;;;;;5.53;4.10;;;9.30;93.40;;;;;;2089555;28;20047;-70
2021/05/24 02:36:06;;;;;;;5.43;4.55;;;9.20;93.40;;;;;;2090669;28;20045;-71
2021/05/24 02:37:07;;;;;;;6.00;4.75;;;9.20;93.40;;;;;;2102819;28;20028;-70
2021/05/24 02:38:08;;;;;;;5.40;4.53;;;9.30;93.50;;;;;;2083568;28;20057;-70
2021/05/24 02:39:09;;;;;;;5.72;4.50;;;9.20;93.40;;;;;;2087057;28;20105;-69
2021/05/24 02:40:13;;;;;;;6.05;4.90;;;9.20;93.60;;;;;;2087088;28;20040;-70
2021/05/24 02:41:14;;;;;;;7.15;4.57;;;9.30;93.60;;;;;;2095896;28;20029;-70
2021/05/24 02:42:15;;;;;;;5.03;4.40;;;9.30;93.50;;;;;;2100415;28;20464;-70
2021/05/24 02:43:15;;;;;;;6.55;4.55;;;9.30;93.60;;;;;;2090274;28;20075;-71
2021/05/24 02:44:16;;;;;;;6.05;4.70;;;9.30;93.50;;;;;;2074259;28;20026;-70
2021/05/24 02:45:19;;;;;;;6.55;4.45;;;9.30;93.50;;;;;;2083134;28;20033;-71
2021/05/24 02:46:19;;;;;;;5.70;4.32;;;9.30;93.50;;;;;;2099220;28;20524;-71
2021/05/24 02:47:20;;;;;;;5.53;4.68;;;9.30;93.90;;;;;;2100272;28;20024;-72
2021/05/24 02:48:21;;;;;;;5.10;4.43;;;9.30;93.60;;;;;;2098509;28;20087;-70
2021/05/24 02:49:22;;;;;;;6.20;4.50;;;9.30;93.60;;;;;;2098459;28;20032;-69
2021/05/24 02:50:24;;;;;;;6.15;4.50;;;9.30;93.70;;;;;;2098477;28;20034;-70
2021/05/24 02:51:25;;;;;;;6.40;4.60;;;9.30;93.70;;;;;;2098550;28;20052;-68
2021/05/24 02:52:25;;;;;;;6.57;4.32;;;9.30;93.70;;;;;;2098602;28;20028;-68
2021/05/24 02:53:26;;;;;;;5.25;4.53;;;9.20;93.70;;;;;;2089560;28;20013;-68
2021/05/24 02:54:27;;;;;;;6.50;4.60;;;9.30;93.80;;;;;;2081495;28;20029;-68
2021/05/24 02:55:27;;;;;;;6.75;4.82;;;9.20;93.80;;;;;;2081428;28;20034;-69
2021/05/24 02:56:28;;;;;;;5.68;4.90;;;9.20;93.90;;;;;;2089276;28;20124;-69
2021/05/24 02:57:29;;;;;;;5.68;4.53;;;9.20;94.00;;;;;;2089647;28;20074;-68
2021/05/24 02:58:29;;;;;;;5.13;4.32;;;9.20;93.90;;;;;;2089692;28;20500;-69
2021/05/24 02:59:30;;;;;;;5.32;4.53;;;9.20;93.90;;;;;;2098656;28;20105;-68
2021/05/24 03:00:31;;;;;;;5.63;4.70;;;9.20;94.00;;;;;;2098692;28;20068;-68
2021/05/24 03:01:33;;;;;;;5.45;4.63;;;9.20;94.00;;;;;;2098490;28;20039;-70
2021/05/24 03:02:34;;;;;;;6.35;4.68;;;9.20;94.10;;;;;;2098703;28;20016;-69
2021/05/24 03:03:35;;;;;;;6.55;4.57;;;9.20;94.10;;;;;;2098445;28;20017;-70
2021/05/24 03:04:37;;;;;;;6.25;4.80;;;9.20;94.20;;;;;;2098363;28;20049;-69
2021/05/24 03:05:37;;;;;;;7.07;4.97;;;9.10;94.60;;;;;;2089568;28;20637;-69
2021/05/24 03:06:38;;;;;;;7.70;5.00;;;9.10;94.40;;;;;;2088675;28;20059;-70
2021/05/24 03:07:39;;;;;;;6.03;4.88;;;9.10;94.50;;;;;;2089954;28;20025;-71
2021/05/24 03:08:40;;;;;;;5.85;4.80;;;9.10;94.60;;;;;;2089847;28;20021;-70
2021/05/24 03:09:41;;;;;;;5.38;4.53;;;9.10;94.70;;;;;;2098626;28;20103;-70
2021/05/24 03:10:42;;;;;;;6.18;4.60;;;9.10;94.70;;;;;;2098477;28;20697;-69
2021/05/24 03:11:42;;;;;;;6.72;4.78;;;9.10;94.70;;;;;;2098376;28;20039;-69
2021/05/24 03:12:44;;;;;;;5.85;4.50;;;9.20;94.80;;;;;;2098303;28;20119;-71
2021/05/24 03:13:45;;;;;;;6.80;5.07;;;9.20;95.00;;;;;;2098513;28;20021;-71
2021/05/24 03:14:45;;;;;;;6.13;5.07;;;9.20;94.70;;;;;;2098448;28;20021;-69
2021/05/24 03:15:46;;;;;;;7.43;4.90;;;9.10;94.60;;;;;;2098303;28;20040;-71
2021/05/24 03:16:47;;;;;;;6.22;4.70;;;9.10;94.70;;;;;;2089191;28;20120;-70
2021/05/24 03:17:47;;;;;;;6.18;4.80;;;9.20;94.70;;;;;;2089749;28;20029;-70
2021/05/24 03:18:48;;;;;;;5.28;4.75;;;9.10;94.80;;;;;;2089545;28;20532;-70
2021/05/24 03:19:48;;;;;;;6.07;5.00;;;9.10;94.80;;;;;;2089612;28;20053;-71
2021/05/24 03:20:49;;;;;;;5.97;4.80;;;9.10;94.80;;;;;;2098362;28;20756;-70
2021/05/24 03:21:50;;;;;;;5.35;4.60;;;9.10;94.90;;;;;;2098399;28;20689;-71
2021/05/24 03:22:51;;;;;;;5.50;4.72;;;9.10;94.90;;;;;;2098457;28;20194;-70
2021/05/24 03:23:51;;;;;;;6.75;4.90;;;9.10;94.90;;;;;;2098240;28;20044;-70
2021/05/24 03:24:52;;;;;;;7.07;4.88;;;9.10;94.90;;;;;;2098363;28;20033;-70
2021/05/24 03:25:53;;;;;;;5.63;4.72;;;9.10;94.90;;;;;;2098361;28;20067;-70
2021/05/24 03:26:53;;;;;;;5.85;4.72;;;9.10;94.90;;;;;;2098095;28;20067;-70
2021/05/24 03:27:54;;;;;;;7.25;4.82;;;9.10;94.80;;;;;;2098428;28;20033;-69
2021/05/24 03:28:54;;;;;;;8.60;5.10;;;9.10;94.80;;;;;;2089569;28;20045;-69
2021/05/24 03:29:55;;;;;;;6.35;5.13;;;9.10;94.80;;;;;;2089581;28;20033;-69
2021/05/24 03:30:56;;;;;;;7.43;5.07;;;9.00;94.60;;;;;;2098420;28;20445;-69
2021/05/24 03:31:56;;;;;;;6.78;4.60;;;9.10;95.00;;;;;;2089507;28;20051;-72
2021/05/24 03:32:58;;;;;;;6.10;4.65;;;9.10;94.60;;;;;;2081426;28;20029;-68
2021/05/24 03:33:58;;;;;;;5.53;4.50;;;9.10;94.50;;;;;;2089561;28;20588;-69
2021/05/24 03:34:59;;;;;;;5.90;4.60;;;9.10;94.50;;;;;;2098559;28;20028;-69
2021/05/24 03:35:59;;;;;;;6.35;4.88;;;9.10;94.40;;;;;;2089077;28;20044;-69
2021/05/24 03:37:00;;;;;;;5.78;4.72;;;9.10;94.40;;;;;;2089154;28;20103;-71
2021/05/24 03:38:01;;;;;;;6.05;4.53;;;9.10;94.30;;;;;;2090795;28;20059;-69
2021/05/24 03:39:03;;;;;;;6.65;4.97;;;9.20;94.30;;;;;;2090054;28;20033;-71
2021/05/24 03:40:08;;;;;;;4.90;4.40;;;9.20;94.30;;;;;;2099647;28;20058;-70
2021/05/24 03:41:09;;;;;;;8.20;4.60;;;9.20;94.20;;;;;;2088723;28;20393;-69
2021/05/24 03:42:09;;;;;;;6.25;4.50;;;9.20;94.30;;;;;;2072814;28;20032;-70
2021/05/24 03:43:10;;;;;;;6.05;4.63;;;9.20;94.20;;;;;;2080910;28;20037;-70
2021/05/24 03:44:11;;;;;;;6.47;4.60;;;9.30;94.20;;;;;;2089584;28;20554;-70
2021/05/24 03:45:18;;;;;;;6.45;4.72;;;9.30;94.20;;;;;;2089628;28;20575;-70
2021/05/24 03:46:19;;;;;;;6.53;4.70;;;9.30;94.00;;;;;;2098006;28;20044;-69
2021/05/24 03:47:19;;;;;;;5.88;4.50;;;9.30;93.90;;;;;;2089430;28;20029;-70
2021/05/24 03:48:21;;;;;;;5.20;4.28;;;9.30;93.90;;;;;;2089350;28;20235;-70
2021/05/24 03:49:22;;;;;;;5.78;4.30;;;9.40;93.90;;;;;;2098192;28;20487;-70
2021/05/24 03:50:24;;;;;;;5.78;4.70;;;9.40;93.90;;;;;;2098054;28;20031;-70
2021/05/24 03:51:25;;;;;;;6.13;4.20;;;9.40;93.90;;;;;;2090848;28;20395;-70
2021/05/24 03:52:26;;;;;;;5.85;4.32;;;9.40;93.80;;;;;;2089490;28;20025;-69
2021/05/24 03:53:27;;;;;;;8.15;4.50;;;9.50;93.80;;;;;;2098522;28;20024;-72
2021/05/24 03:54:27;;;;;;;6.03;4.20;;;9.50;93.80;;;;;;2104166;28;20035;-71
2021/05/24 03:55:28;;;;;;;5.95;4.40;;;9.50;93.70;;;;;;2106760;28;20016;-69
2021/05/24 03:56:29;;;;;;;5.13;4.20;;;9.60;93.60;;;;;;2097390;28;20044;-70
2021/05/24 03:57:29;;;;;;;4.78;4.20;;;9.60;93.60;;;;;;2095200;28;20548;-71
2021/05/24 03:58:30;;;;;;;4.88;4.35;;;9.60;93.50;;;;;;2098985;28;20055;-71
2021/05/24 03:59:30;;;;;;;5.68;4.30;;;9.60;93.50;;;;;;2101100;28;20447;-71
2021/05/24 04:00:31;;;;;;;5.25;4.07;;;9.70;93.50;;;;;;2089621;28;20025;-70
2021/05/24 04:01:34;;;;;;;7.03;4.68;;;9.70;93.40;;;;;;2082314;28;20124;-69
2021/05/24 04:02:34;;;;;;;5.32;4.25;;;9.80;93.40;;;;;;2092864;28;20070;-69
2021/05/24 04:03:35;;;;;;;4.82;4.22;;;9.80;93.20;;;;;;2098574;28;20066;-70
2021/05/24 04:04:37;;;;;;;5.50;4.25;;;9.90;93.00;;;;;;2098176;28;20027;-72
2021/05/24 04:05:39;;;;;;;6.55;4.40;;;10.00;93.00;;;;;;2097939;28;20027;-72
2021/05/24 04:06:41;;;;;;;4.75;4.00;;;10.20;92.90;;;;;;2095521;28;20032;-70
2021/05/24 04:07:45;;;;;;;5.30;3.90;;;10.30;92.50;;;;;;2089751;28;20029;-70
2021/05/24 04:08:47;;;;;;;6.00;4.15;;;10.60;92.20;;;;;;2092102;28;20079;-69
2021/05/24 04:09:48;;;;;;;7.35;4.35;;;10.90;91.70;;;;;;2098429;28;20048;-70
2021/05/24 04:10:54;;;;;;;5.75;4.30;;;11.30;90.60;;;;;;2098100;28;20035;-71
2021/05/24 04:11:54;;;;;;;5.03;3.95;;;11.70;89.50;;;;;;2098514;28;20013;-70
2021/05/24 04:12:55;;;;;;;5.82;3.88;;;12.20;87.30;;;;;;2098244;28;20549;-70
2021/05/24 04:13:56;;;;;;;4.32;3.53;;;12.60;84.30;;;;;;2098112;28;20031;-70
2021/05/24 04:14:57;;;;;;;5.47;3.72;;;13.10;82.30;;;;;;2098346;28;20043;-71
2021/05/24 04:15:58;;;;;;;5.07;3.80;;;13.50;80.10;;;;;;2097588;28;20032;-70
2021/05/24 04:16:59;;;;;;;4.70;3.60;;;13.90;77.30;;;;;;2097855;28;20021;-70
2021/05/24 04:18:01;;;;;;;5.30;3.80;;;14.20;75.30;;;;;;2097964;28;20033;-69
2021/05/24 04:19:12;;;;;;;4.50;3.70;;;14.50;72.40;;;;;;2097809;28;20039;-70
2021/05/24 04:20:13;;;;;;;5.25;3.78;;;14.80;71.70;;;;;;2097879;28;20082;-71
2021/05/24 04:21:15;;;;;;;3.78;3.38;;;15.20;70.10;;;;;;2097758;28;20035;-71
2021/05/24 04:22:15;;;;;;;4.82;3.75;;;15.50;68.50;;;;;;2097710;28;20052;-71
2021/05/24 04:23:17;;;;;;;3.90;3.40;;;15.80;67.30;;;;;;2088870;28;20512;-73
2021/05/24 04:24:18;;;;;;;4.43;3.50;;;16.00;66.10;;;;;;2088999;28;20389;-70
2021/05/24 04:25:19;;;;;;;3.92;3.50;;;16.30;65.30;;;;;;2097596;28;20082;-70
2021/05/24 04:26:20;;;;;;;4.45;3.67;;;16.40;63.90;;;;;;2088534;28;20033;-71
2021/05/24 04:27:21;;;;;;;5.28;3.33;;;16.60;63.20;;;;;;2088796;28;20037;-70
2021/05/24 04:28:21;;;;;;;5.90;3.30;;;16.80;61.80;;;;;;2088809;28;20025;-70
2021/05/24 04:29:22;;;;;;;4.82;3.65;;;16.90;61.20;;;;;;2088729;28;20052;-70
2021/05/24 04:30:23;;;;;;;4.22;3.45;;;16.80;60.30;;;;;;2086487;28;20037;-71
2021/05/24 04:31:24;;;;;;;4.35;3.28;;;17.00;60.50;;;;;;2080215;28;20033;-71
2021/05/24 04:32:25;;;;;;;4.10;3.40;;;17.10;60.20;;;;;;2087036;28;20053;-71
2021/05/24 04:33:26;;;;;;;5.03;3.47;;;17.30;59.90;;;;;;2088977;28;20037;-71
2021/05/24 04:34:27;;;;;;;4.78;3.22;;;17.40;59.60;;;;;;2097714;28;20027;-71
2021/05/24 04:35:27;;;;;;;3.40;2.92;;;17.60;59.10;;;;;;2088774;28;20516;-71
2021/05/24 04:36:28;;;;;;;3.83;3.30;;;17.70;58.60;;;;;;2087795;28;20044;-70
2021/05/24 04:37:29;;;;;;;4.43;3.78;;;17.70;57.90;;;;;;2089566;28;20056;-71
2021/05/24 04:38:29;;;;;;;4.03;3.55;;;17.70;56.80;;;;;;2097736;28;20039;-72
2021/05/24 04:39:30;;;;;;;3.70;3.25;;;17.60;57.10;;;;;;2088850;28;20049;-71
2021/05/24 04:40:31;;;;;;;3.65;2.95;;;17.50;57.10;;;;;;2088728;28;20025;-71
2021/05/24 04:41:32;;;;;;;3.85;2.90;;;17.70;57.30;;;;;;2097744;28;20029;-71
2021/05/24 04:42:33;;;;;;;5.35;3.50;;;18.00;57.30;;;;;;2097549;28;20060;-71
2021/05/24 04:43:35;;;;;;;4.10;2.80;;;18.20;56.20;;;;;;2097593;28;20040;-71
2021/05/24 04:44:36;;;;;;;3.20;2.60;;;18.40;55.90;;;;;;2097577;28;20484;-71
2021/05/24 04:45:36;;;;;;;5.40;3.20;;;18.60;55.20;;;;;;2097433;28;20046;-71
2021/05/24 04:46:37;;;;;;;4.05;2.90;;;18.70;54.50;;;;;;2097421;28;20020;-71
2021/05/24 04:47:40;;;;;;;4.18;2.90;;;18.90;54.20;;;;;;2088748;28;20627;-70
2021/05/24 04:48:40;;;;;;;4.32;3.20;;;18.90;54.00;;;;;;2089250;28;20025;-70
2021/05/24 04:49:41;;;;;;;3.75;2.92;;;19.00;53.70;;;;;;2097694;28;20502;-69
2021/05/24 04:50:41;;;;;;;3.95;3.17;;;19.00;53.70;;;;;;2080737;28;20042;-71
2021/05/24 04:51:43;;;;;;;3.90;3.10;;;19.00;53.40;;;;;;2080566;28;20041;-70
2021/05/24 04:52:43;;;;;;;3.88;2.97;;;19.00;53.20;;;;;;2097333;28;20028;-71
2021/05/24 04:53:44;;;;;;;3.72;2.88;;;19.00;53.30;;;;;;2097596;28;20507;-70
2021/05/24 04:54:45;;;;;;;3.28;2.90;;;19.10;53.30;;;;;;2097617;28;20035;-71
2021/05/24 04:55:46;;;;;;;3.10;2.80;;;19.20;52.90;;;;;;2081547;28;20107;-71
2021/05/24 04:56:47;;;;;;;3.30;3.00;;;19.30;52.40;;;;;;2071998;28;20034;-70
2021/05/24 04:57:48;;;;;;;4.10;3.30;;;19.40;51.90;;;;;;2088843;28;20084;-71
2021/05/24 04:58:48;;;;;;;3.17;2.75;;;19.20;51.70;;;;;;2097750;28;20039;-70
2021/05/24 04:59:49;;;;;;;3.38;2.72;;;19.40;52.20;;;;;;2088675;28;20392;-70
2021/05/24 05:00:50;;;;;;;3.83;2.72;;;19.40;51.70;;;;;;2090755;28;20090;-70
2021/05/24 05:01:50;;;;;;;5.32;2.72;;;19.50;52.00;;;;;;2091494;28;20032;-73
2021/05/24 05:02:51;;;;;;;2.75;2.47;;;19.70;51.80;;;;;;2091150;28;20037;-70
2021/05/24 05:03:52;;;;;;;3.67;2.83;;;19.80;51.10;;;;;;2100122;28;20071;-70
2021/05/24 05:04:53;;;;;;;4.03;3.10;;;19.90;50.90;;;;;;2082271;28;20029;-70
2021/05/24 05:05:54;;;;;;;3.65;2.70;;;19.80;50.60;;;;;;2081199;28;20033;-69
2021/05/24 05:06:56;;;;;;;3.50;2.50;;;19.80;51.00;;;;;;2088329;28;20084;-71
2021/05/24 05:07:57;;;;;;;3.47;2.80;;;19.90;50.90;;;;;;2088958;28;20024;-71
2021/05/24 05:08:57;;;;;;;5.05;2.80;;;19.70;50.80;;;;;;2088528;28;20029;-71
2021/05/24 05:09:59;;;;;;;4.03;2.90;;;19.90;50.70;;;;;;2072190;28;20033;-70
2021/05/24 05:10:59;;;;;;;3.28;2.65;;;20.00;50.20;;;;;;2080460;28;20021;-70
2021/05/24 05:12:00;;;;;;;4.68;2.58;;;19.90;50.00;;;;;;2097611;28;20110;-70
2021/05/24 05:13:01;;;;;;;3.70;2.50;;;19.80;50.00;;;;;;2097725;28;20098;-70
2021/05/24 05:14:02;;;;;;;4.32;2.53;;;19.80;50.80;;;;;;2088959;28;20090;-71
2021/05/24 05:15:04;;;;;;;3.50;3.00;;;19.80;50.80;;;;;;2088874;28;20032;-71
2021/05/24 05:16:05;;;;;;;3.83;2.60;;;19.70;51.30;;;;;;2098647;28;20036;-72
2021/05/24 05:17:07;;;;;;;3.38;2.63;;;19.70;51.20;;;;;;2089268;28;20041;-71
2021/05/24 05:18:08;;;;;;;2.70;2.50;;;19.50;52.10;;;;;;2081366;28;20037;-72
2021/05/24 05:19:10;;;;;;;2.85;2.55;;;19.40;51.80;;;;;;2096286;28;20041;-70
2021/05/24 05:20:12;;;;;;;3.55;2.83;;;19.40;51.80;;;;;;2081081;28;20105;-71